Oxford, NC (27565)

2:33 AM EST on December 10, 2016 (GMT -0500)
Henderson-Oxford | | Change Station

Elev 528 ft 36.36 °N, 78.53 °W | Updated 28 minutes ago

Clear
Clear
23 °F
Feels Like 16 °F
N
6
Wind Variable Wind from NW

Today
High -- | Low -- °F
--% Chance of Precip.
Yesterday
High -- | Low -- °F
Precip. -- in
Pressure 30.49 in
Visibility 10.0 miles
Clouds Clear
Windchill 16 °F
Dew Point 11 °F
Humidity 59%
Rainfall 0.00 in
Snow Depth Not available.
7:15 AM 4:59 PM
Waxing Gibbous, 81% visible
METAR KHNZ 100705Z AUTO 32005KT 10SM CLR M05/M12 A3049 RMK AO2 T10481118
Pressure 30.49 in
Visibility 10.0 miles
Clouds Clear
Windchill 16 °F
Dew Point 11 °F
Humidity 59%
Rainfall 0.00 in
Snow Depth Not available.
7:15 AM 4:59 PM
Waxing Gibbous, 81% visible
METAR KHNZ 100705Z AUTO 32005KT 10SM CLR M05/M12 A3049 RMK AO2 T10481118

10-Day Weather Forecast

Almanac

Astronomy

Dec. 10, 2016 Rise Set
Actual Time
Civil Twilight
Nautical Twilight
Astronomical Twilight
Moon
Length of Visible Light
Length of Day
Tomorrow will be .
, % of the Moon is Illuminated

Today's Extremes

State Highs State Lows

Community

WunderPhotos

Upload Photos

1,956,527 photos uploaded!

WunderBlog® & News

Nearby

Air Quality

  Air Quality AQ Index Pollutant
Not available.

Snow Depth

Station Depth Elevation

Earthquake Activity

City Distance Mag. Time & Date
Minimum magnitude displayed is 2.5.

Coastal Water Temperatures

Place Temperature

Stations

Nearby Weather Stations

Station Location Temp. Windchill Dew Point Humidity Wind Precip. Elev Updated Type
                   

Watches & Warnings

There are currently no watches in effect.